createdAt,value
2023-03-07T00:01:38.736Z,67139.66
2023-03-07T00:04:05.945Z,67134.63
2023-03-07T00:06:33.845Z,67138.56
2023-03-07T00:09:05.991Z,67136.28
2023-03-07T00:11:36.172Z,67149.56
2023-03-07T00:14:11.946Z,67146.19
2023-03-07T00:16:39.064Z,67142.47
2023-03-07T00:19:10.724Z,67139.88
2023-03-07T00:21:39.362Z,67143.59
2023-03-07T00:24:06.872Z,67138.19
2023-03-07T00:26:39.555Z,67139.31
2023-03-07T00:29:09.872Z,67140.22
2023-03-07T00:31:37.575Z,67141.91
2023-03-07T00:34:07.931Z,67147.75
2023-03-07T00:36:39.026Z,67150.69
2023-03-07T00:39:16.052Z,67138.19
2023-03-07T00:41:45.799Z,67137.63
2023-03-07T00:44:13.169Z,67142.47
2023-03-07T00:46:40.464Z,67141.00
2023-03-07T00:49:08.824Z,67149.78
2023-03-07T00:51:36.889Z,67155.19
2023-03-07T00:54:04.834Z,67150.53
2023-03-07T00:56:32.495Z,67160.09
2023-03-07T00:59:05.969Z,67156.88
2023-03-07T01:01:36.991Z,67155.19
2023-03-07T01:04:13.950Z,67145.28
2023-03-07T01:06:41.379Z,67152.78
2023-03-07T01:09:10.915Z,67152.94
2023-03-07T01:11:38.902Z,67157.44
2023-03-07T01:14:09.446Z,67105.59
2023-03-07T01:16:38.584Z,67145.28
2023-03-07T01:19:12.856Z,67142.69
2023-03-07T01:21:44.417Z,67143.03
2023-03-07T01:24:16.951Z,67149.78
2023-03-07T01:26:44.202Z,67147.16
2023-03-07T01:29:14.911Z,67149.56
2023-03-07T01:31:44.306Z,67147.31
2023-03-07T01:34:14.591Z,67146.78
2023-03-07T01:36:42.491Z,67145.84
2023-03-07T01:39:16.170Z,67144.16
2023-03-07T01:41:50.745Z,67151.25
2023-03-07T01:44:27.723Z,67161.59
2023-03-07T01:46:56.321Z,67155.19
2023-03-07T01:49:41.009Z,67143.81
2023-03-07T01:52:30.416Z,67147.88
2023-03-07T01:55:05.075Z,67141.34
2023-03-07T01:57:39.077Z,67138.19
2023-03-07T02:00:13.477Z,67145.28
2023-03-07T02:02:44.055Z,67140.03
2023-03-07T02:05:28.110Z,67136.88
2023-03-07T02:08:00.220Z,67140.94
2023-03-07T02:10:32.956Z,67137.97
2023-03-07T02:13:00.483Z,67132.56
2023-03-07T02:15:30.763Z,67135.72
2023-03-07T02:17:58.944Z,67142.81
2023-03-07T02:21:14.782Z,67165.50
2023-03-07T02:23:55.796Z,67163.81
2023-03-07T02:26:30.530Z,67161.22
2023-03-07T02:29:09.080Z,67165.72
2023-03-07T02:31:36.610Z,67170.56
2023-03-07T02:34:08.591Z,67167.41
2023-03-07T02:36:46.664Z,67193.41
2023-03-07T02:39:29.100Z,67179.00
2023-03-07T02:42:09.773Z,67181.78
2023-03-07T02:44:46.924Z,67178.41
2023-03-07T02:47:16.140Z,67194.38
2023-03-07T02:49:43.299Z,67202.78
2023-03-07T02:52:10.850Z,67199.44
2023-03-07T02:54:38.261Z,67183.34
2023-03-07T02:57:05.773Z,67193.94
2023-03-07T02:59:32.908Z,67176.41
2023-03-07T03:02:00.645Z,67174.72
2023-03-07T03:04:27.972Z,67179.19
2023-03-07T03:06:55.664Z,67190.25
2023-03-07T03:09:23.263Z,67186.88
2023-03-07T03:11:50.507Z,67172.31
2023-03-07T03:14:21.098Z,67179.75
2023-03-07T03:16:48.472Z,67189.09
2023-03-07T03:19:15.878Z,67179.56
2023-03-07T03:21:43.975Z,67176.81
2023-03-07T03:24:11.841Z,67183.28
2023-03-07T03:26:39.602Z,67177.88
2023-03-07T03:29:07.612Z,67172.81
2023-03-07T03:31:35.134Z,67169.22
2023-03-07T03:34:05.662Z,67166.63
2023-03-07T03:36:33.947Z,67166.28
2023-03-07T03:39:10.971Z,67164.59
2023-03-07T03:41:43.717Z,67166.13
2023-03-07T03:44:11.278Z,67167.75
2023-03-07T03:46:38.557Z,67152.22
2023-03-07T03:49:05.988Z,67152.78
2023-03-07T03:51:34.325Z,67147.16
2023-03-07T03:54:01.646Z,67153.72
2023-03-07T03:56:29.654Z,67165.28
2023-03-07T03:58:57.983Z,67169.44
2023-03-07T04:01:28.007Z,67163.28
2023-03-07T04:03:56.645Z,67165.72
2023-03-07T04:06:27.320Z,67171.47
2023-03-07T04:08:56.183Z,67164.75
2023-03-07T04:11:24.553Z,67160.09
2023-03-07T04:13:52.877Z,67164.38
2023-03-07T04:16:22.657Z,67162.13
2023-03-07T04:18:53.045Z,67165.16
2023-03-07T04:21:21.240Z,67156.88
2023-03-07T04:23:50.576Z,67151.47
2023-03-07T04:26:20.434Z,67161.59
2023-03-07T04:28:49.519Z,67157.28
2023-03-07T04:31:23.558Z,67161.00
2023-03-07T04:33:51.653Z,67155.38
2023-03-07T04:36:19.644Z,67154.63
2023-03-07T04:38:48.534Z,67159.31
2023-03-07T04:41:19.021Z,67167.75
2023-03-07T04:43:47.586Z,67160.81
2023-03-07T04:46:16.754Z,67150.34
2023-03-07T04:48:44.977Z,67155.38
2023-03-07T04:51:13.057Z,67168.88
2023-03-07T04:53:40.764Z,67163.47
2023-03-07T04:56:09.790Z,67176.94
2023-03-07T04:58:38.575Z,67165.72
2023-03-07T05:01:05.878Z,67168.88
2023-03-07T05:03:33.840Z,67172.25
2023-03-07T05:06:06.459Z,67173.22
2023-03-07T05:08:34.133Z,67192.69
2023-03-07T05:11:01.714Z,67200.34
2023-03-07T05:13:30.139Z,67199.56
2023-03-07T05:16:01.144Z,67190.78
2023-03-07T05:18:29.438Z,67184.81
2023-03-07T05:20:58.781Z,67193.25
2023-03-07T05:23:26.637Z,67196.63
2023-03-07T05:25:55.088Z,67201.69
2023-03-07T05:28:22.665Z,67208.22
2023-03-07T05:30:50.039Z,67207.09
2023-03-07T05:33:17.323Z,67221.50
2023-03-07T05:35:44.904Z,67223.75
2023-03-07T05:38:13.354Z,67178.03
2023-03-07T05:40:40.435Z,67229.22
2023-03-07T05:43:09.000Z,67244.41
2023-03-07T05:45:38.916Z,67240.47
2023-03-07T05:48:06.301Z,67235.38
2023-03-07T05:50:33.521Z,67246.09
2023-03-07T05:53:00.680Z,67235.38
2023-03-07T05:55:30.522Z,67248.13
2023-03-07T05:57:58.710Z,67243.28
2023-03-07T06:00:26.473Z,67264.22
2023-03-07T06:02:58.367Z,67248.13
2023-03-07T06:05:25.629Z,67238.22
2023-03-07T06:07:53.264Z,67246.44
2023-03-07T06:10:21.166Z,67250.38
2023-03-07T06:12:56.010Z,67250.94
2023-03-07T06:15:24.721Z,67267.81
2023-03-07T06:18:03.468Z,67262.72
2023-03-07T06:20:30.671Z,67276.66
2023-03-07T06:22:57.867Z,67270.81
2023-03-07T06:25:32.257Z,67269.34
2023-03-07T06:28:03.523Z,67265.97
2023-03-07T06:30:31.746Z,67283.75
2023-03-07T06:32:59.037Z,67293.31
2023-03-07T06:35:26.672Z,67281.84
2023-03-07T06:37:57.733Z,67273.44
2023-03-07T06:40:24.879Z,67281.28
2023-03-07T06:42:53.656Z,67282.75
2023-03-07T06:45:20.771Z,67278.50
2023-03-07T06:47:47.953Z,67273.63
2023-03-07T06:50:17.576Z,67284.47
2023-03-07T06:52:50.041Z,67278.50
2023-03-07T06:55:18.623Z,67281.28
2023-03-07T06:57:46.413Z,67282.75
2023-03-07T07:00:14.250Z,67278.50
2023-03-07T07:02:41.444Z,67294.00
2023-03-07T07:05:08.844Z,67298.72
2023-03-07T07:07:36.096Z,67301.19
2023-03-07T07:10:04.973Z,67303.09
2023-03-07T07:12:38.862Z,67310.91
2023-03-07T07:15:07.029Z,67312.44
2023-03-07T07:17:39.132Z,67318.06
2023-03-07T07:20:11.213Z,67326.63
2023-03-07T07:22:40.163Z,67325.94
2023-03-07T07:25:07.637Z,67328.75
2023-03-07T07:27:36.638Z,67342.25
2023-03-07T07:30:05.242Z,67354.06
2023-03-07T07:32:32.497Z,67362.88
2023-03-07T07:35:00.415Z,67374.09
2023-03-07T07:37:27.818Z,67378.63
2023-03-07T07:39:57.513Z,67367.94
2023-03-07T07:42:25.023Z,67365.69
2023-03-07T07:45:24.660Z,67367.94
2023-03-07T07:47:52.778Z,67359.69
2023-03-07T07:50:22.702Z,67372.41
2023-03-07T07:52:49.886Z,67365.69
2023-03-07T07:55:17.517Z,67381.22
2023-03-07T07:57:45.094Z,67379.00
2023-03-07T08:00:13.397Z,67378.63
2023-03-07T08:02:40.499Z,67383.69
2023-03-07T08:05:10.313Z,67383.69
2023-03-07T08:07:37.468Z,67381.84
2023-03-07T08:10:05.770Z,67394.38
2023-03-07T08:12:35.242Z,67397.53
2023-03-07T08:15:06.862Z,67406.19
2023-03-07T08:17:34.013Z,67406.06
2023-03-07T08:20:04.694Z,67406.41
2023-03-07T08:22:38.442Z,67427.81
2023-03-07T08:25:17.741Z,67431.75
2023-03-07T08:27:44.822Z,67435.47
2023-03-07T08:30:13.430Z,67447.28
2023-03-07T08:32:40.666Z,67438.72
2023-03-07T08:35:08.096Z,67452.56
2023-03-07T08:37:35.521Z,67467.22
2023-03-07T08:40:03.371Z,67474.34
2023-03-07T08:42:30.569Z,67478.44
2023-03-07T08:45:00.491Z,67474.91
2023-03-07T08:47:31.564Z,67488.56
2023-03-07T08:49:58.731Z,67468.91
2023-03-07T08:52:25.968Z,67485.81
2023-03-07T08:54:53.156Z,67480.88
2023-03-07T08:57:20.422Z,67473.63
2023-03-07T08:59:52.570Z,67492.72
2023-03-07T09:02:19.716Z,67488.03
2023-03-07T09:04:47.468Z,67499.69
2023-03-07T09:07:14.693Z,67493.47
2023-03-07T09:09:41.892Z,67485.25
2023-03-07T09:12:09.783Z,67483.56
2023-03-07T09:14:37.876Z,67488.59
2023-03-07T09:17:08.713Z,67490.28
2023-03-07T09:19:36.090Z,67498.53
2023-03-07T09:22:03.299Z,67507.56
2023-03-07T09:24:33.223Z,67509.25
2023-03-07T09:27:00.463Z,67504.94
2023-03-07T09:29:28.837Z,67522.78
2023-03-07T09:31:55.916Z,67518.47
2023-03-07T09:34:25.977Z,67542.69
2023-03-07T09:36:53.972Z,67540.06
2023-03-07T09:39:24.209Z,67543.81
2023-03-07T09:41:51.431Z,67553.03
2023-03-07T09:44:39.072Z,67554.53
2023-03-07T09:47:57.541Z,67540.81
2023-03-07T09:50:31.093Z,67558.69
2023-03-07T09:53:02.747Z,67574.81
2023-03-07T09:55:31.276Z,67567.69
2023-03-07T09:58:01.232Z,67572.94
2023-03-07T10:00:33.879Z,67584.56
2023-03-07T10:03:16.606Z,67593.56
2023-03-07T10:05:51.947Z,67596.59
2023-03-07T10:08:22.363Z,67606.19
2023-03-07T10:11:14.822Z,67601.88
2023-03-07T10:14:09.384Z,67622.19
2023-03-07T10:17:01.361Z,67614.28
2023-03-07T10:19:36.257Z,67610.13
2023-03-07T10:22:12.414Z,67603.56
2023-03-07T10:24:52.268Z,67612.38
2023-03-07T10:27:26.685Z,67611.47
2023-03-07T10:29:59.812Z,67618.44
2023-03-07T10:32:47.516Z,67612.22
2023-03-07T10:35:17.105Z,67613.50
2023-03-07T10:37:52.872Z,67616.31
2023-03-07T10:40:26.403Z,67619.34
2023-03-07T10:42:54.889Z,67617.66
2023-03-07T10:45:22.093Z,67624.44
2023-03-07T10:47:50.713Z,67602.56
2023-03-07T10:50:55.659Z,67653.75
2023-03-07T10:53:26.686Z,67672.72
2023-03-07T10:56:20.282Z,67685.91
2023-03-07T10:59:09.670Z,67703.94
2023-03-07T11:02:03.469Z,67710.72
2023-03-07T11:04:46.699Z,67693.59
2023-03-07T11:07:30.844Z,67697.38
2023-03-07T11:09:59.832Z,67724.63
2023-03-07T11:12:29.294Z,67708.47
2023-03-07T11:15:21.633Z,67734.22
2023-03-07T11:17:49.629Z,67756.25
2023-03-07T11:21:09.193Z,67769.41
2023-03-07T11:23:36.352Z,67786.16
2023-03-07T11:26:40.242Z,67807.25
2023-03-07T11:29:13.273Z,67791.44
2023-03-07T11:32:05.907Z,67794.06
2023-03-07T11:35:18.395Z,67783.53
2023-03-07T11:38:03.375Z,67745.16
2023-03-07T11:40:43.636Z,67708.81
2023-03-07T11:43:55.496Z,67702.25
2023-03-07T11:46:47.544Z,67707.91
2023-03-07T11:49:35.186Z,67713.34
2023-03-07T11:52:39.790Z,67706.78
2023-03-07T11:55:21.610Z,67698.31
2023-03-07T11:58:09.113Z,67678.19
2023-03-07T12:01:27.675Z,67692.31
2023-03-07T12:04:12.148Z,67705.84
2023-03-07T12:06:42.117Z,67721.44
2023-03-07T12:09:38.459Z,67719.41
2023-03-07T12:12:12.030Z,67736.13
2023-03-07T12:14:56.566Z,67729.50
2023-03-07T12:17:35.593Z,67734.78
2023-03-07T12:20:44.573Z,67747.59
2023-03-07T12:23:23.590Z,67768.09
2023-03-07T12:25:59.095Z,67774.66
2023-03-07T12:28:39.527Z,67761.50
2023-03-07T12:31:40.223Z,67770.19
2023-03-07T12:34:10.475Z,67777.31
2023-03-07T12:36:50.101Z,67770.19
2023-03-07T12:39:35.984Z,67795.56
2023-03-07T12:42:09.001Z,67792.56
2023-03-07T12:44:41.937Z,67798.22
2023-03-07T12:47:23.966Z,67795.41
2023-03-07T12:50:01.830Z,67818.91
2023-03-07T12:52:38.497Z,67853.56
2023-03-07T12:55:20.561Z,67878.44
2023-03-07T12:58:15.863Z,67885.38
2023-03-07T13:00:49.325Z,67906.31
2023-03-07T13:03:24.626Z,67856.03
2023-03-07T13:05:52.944Z,67866.19
2023-03-07T13:08:23.707Z,67853.03
2023-03-07T13:10:52.603Z,67845.44
2023-03-07T13:13:45.745Z,67798.28
2023-03-07T13:16:47.156Z,67801.75
2023-03-07T13:19:39.426Z,67797.25
2023-03-07T13:22:15.631Z,67800.06
2023-03-07T13:24:49.973Z,67801.03
2023-03-07T13:27:22.745Z,67791.03
2023-03-07T13:30:08.321Z,67798.56
2023-03-07T13:32:56.557Z,67787.13
2023-03-07T13:35:39.204Z,67827.94
2023-03-07T13:38:24.728Z,67850.75
2023-03-07T13:40:58.631Z,67869.03
2023-03-07T13:43:28.015Z,67872.56
2023-03-07T13:46:03.777Z,67867.69
2023-03-07T13:48:31.038Z,67882.75
2023-03-07T13:51:01.150Z,67873.16
2023-03-07T13:53:28.258Z,67869.94
2023-03-07T13:56:31.790Z,67846.03
2023-03-07T13:59:15.062Z,67854.50
2023-03-07T14:02:07.477Z,67851.31
2023-03-07T14:04:40.924Z,67850.19
2023-03-07T14:07:28.889Z,67853.38
2023-03-07T14:10:09.905Z,67849.06
2023-03-07T14:13:05.581Z,67832.09
2023-03-07T14:15:55.107Z,67830.78
2023-03-07T14:18:37.192Z,67797.44
2023-03-07T14:21:46.151Z,67801.75
2023-03-07T14:24:34.827Z,67772.63
2023-03-07T14:27:12.120Z,67787.84
2023-03-07T14:29:57.203Z,67808.91
2023-03-07T14:32:33.096Z,67799.34
2023-03-07T14:35:03.349Z,67799.72
2023-03-07T14:37:42.711Z,67780.53
2023-03-07T14:40:33.223Z,67794.06
2023-03-07T14:43:08.019Z,67774.88
2023-03-07T14:45:52.816Z,67772.25
2023-03-07T14:48:47.331Z,67803.66
2023-03-07T14:51:17.652Z,67803.66
2023-03-07T14:53:48.550Z,67804.22
2023-03-07T14:56:32.328Z,67800.66
2023-03-07T14:59:06.221Z,67781.25
2023-03-07T15:01:40.277Z,67779.38
2023-03-07T15:04:35.523Z,67788.22
2023-03-07T15:07:05.822Z,67779.00
2023-03-07T15:09:36.536Z,67781.44
2023-03-07T15:12:22.959Z,67766.75
2023-03-07T15:15:03.211Z,67757.94
2023-03-07T15:17:38.096Z,67744.03
2023-03-07T15:20:14.371Z,67749.81
2023-03-07T15:22:42.614Z,67727.09
2023-03-07T15:25:34.973Z,67725.38
2023-03-07T15:28:05.201Z,67723.13
2023-03-07T15:30:35.328Z,67718.41
2023-03-07T15:33:18.859Z,67712.78
2023-03-07T15:36:14.861Z,67699.84
2023-03-07T15:38:50.282Z,67707.16
2023-03-07T15:41:36.298Z,67705.66
2023-03-07T15:44:10.680Z,67699.06
2023-03-07T15:46:45.337Z,67698.31
2023-03-07T15:49:43.456Z,67684.78
2023-03-07T15:52:31.466Z,67685.69
2023-03-07T15:55:18.733Z,67685.69
2023-03-07T15:57:53.659Z,67690.63
2023-03-07T16:00:33.018Z,67688.16
2023-03-07T16:03:30.079Z,67685.91
2023-03-07T16:06:02.055Z,67688.72
2023-03-07T16:08:29.776Z,67687.59
2023-03-07T16:11:07.732Z,67692.25
2023-03-07T16:13:42.238Z,67680.06
2023-03-07T16:16:21.206Z,67676.31
2023-03-07T16:18:48.873Z,67675.19
2023-03-07T16:21:18.610Z,67686.28
2023-03-07T16:23:48.306Z,67683.06
2023-03-07T16:26:23.449Z,67672.94
2023-03-07T16:28:56.516Z,67670.53
2023-03-07T16:31:27.004Z,67675.75
2023-03-07T16:33:57.594Z,67672.16
2023-03-07T16:36:27.711Z,67628.56
2023-03-07T16:38:54.925Z,67574.97
2023-03-07T16:41:24.979Z,67530.66
2023-03-07T16:44:00.108Z,67493.69
2023-03-07T16:46:28.475Z,67438.28
2023-03-07T16:48:55.699Z,67403.53
2023-03-07T16:51:25.787Z,67347.88
2023-03-07T16:53:52.981Z,67332.84
2023-03-07T16:56:32.500Z,67315.38
2023-03-07T16:59:03.910Z,67280.75
2023-03-07T17:01:31.588Z,67261.03
2023-03-07T17:03:59.431Z,67244.56
2023-03-07T17:06:39.760Z,67228.09
2023-03-07T17:09:11.302Z,67218.31
2023-03-07T17:11:47.423Z,67210.25
2023-03-07T17:14:18.854Z,67196.97
2023-03-07T17:16:51.558Z,67191.91
2023-03-07T17:19:30.169Z,67191.72
2023-03-07T17:21:58.755Z,67190.25
2023-03-07T17:24:27.705Z,67180.09
2023-03-07T17:26:56.739Z,67172.81
2023-03-07T17:29:28.318Z,67177.09
2023-03-07T17:31:58.687Z,67171.47
2023-03-07T17:34:29.163Z,67156.94
2023-03-07T17:36:57.807Z,67147.75
2023-03-07T17:39:31.216Z,67146.19
2023-03-07T17:41:59.121Z,67135.38
2023-03-07T17:44:26.921Z,67135.72
2023-03-07T17:46:54.886Z,67137.22
2023-03-07T17:49:22.815Z,67129.75
2023-03-07T17:51:50.334Z,67132.03
2023-03-07T17:54:17.435Z,67130.13
2023-03-07T17:56:45.727Z,67130.34
2023-03-07T17:59:12.981Z,67126.19
2023-03-07T18:01:43.065Z,67117.97
2023-03-07T18:04:10.302Z,67122.59
2023-03-07T18:06:39.914Z,67118.69
2023-03-07T18:09:08.510Z,67114.75
2023-03-07T18:11:35.987Z,67109.00
2023-03-07T18:14:03.734Z,67108.22
2023-03-07T18:16:31.013Z,67104.28
2023-03-07T18:19:01.234Z,67101.13
2023-03-07T18:21:30.000Z,67102.03
2023-03-07T18:23:57.614Z,67062.94
2023-03-07T18:26:25.292Z,67102.59
2023-03-07T18:28:56.492Z,67096.06
2023-03-07T18:31:28.048Z,67100.13
2023-03-07T18:33:55.514Z,67091.56
2023-03-07T18:36:25.722Z,67100.13
2023-03-07T18:38:52.936Z,67053.41
2023-03-07T18:41:23.803Z,67095.53
2023-03-07T18:43:59.728Z,67096.22
2023-03-07T18:46:32.398Z,67090.25
2023-03-07T18:49:03.626Z,67093.06
2023-03-07T18:51:33.615Z,67098.69
2023-03-07T18:54:02.204Z,67090.81
2023-03-07T18:56:33.330Z,67097.75
2023-03-07T18:59:10.243Z,67107.66
2023-03-07T19:01:39.744Z,67107.31
2023-03-07T19:04:09.654Z,67101.69
2023-03-07T19:06:42.290Z,67099.03
2023-03-07T19:09:20.479Z,67088.00
2023-03-07T19:11:50.547Z,67089.31
2023-03-07T19:14:27.377Z,67093.63
2023-03-07T19:16:54.616Z,67089.47
2023-03-07T19:19:38.679Z,67085.75
2023-03-07T19:22:12.696Z,67083.72
2023-03-07T19:24:47.550Z,67081.47
2023-03-07T19:27:19.920Z,67080.91
2023-03-07T19:30:04.933Z,67079.22
2023-03-07T19:32:42.353Z,67079.22
2023-03-07T19:35:12.222Z,67038.81
2023-03-07T19:37:52.607Z,67091.16
2023-03-07T19:40:19.925Z,67096.75
2023-03-07T19:42:56.641Z,67083.50
2023-03-07T19:45:49.955Z,67086.09
2023-03-07T19:48:20.751Z,67082.72
2023-03-07T19:50:57.307Z,67081.63
2023-03-07T19:53:35.584Z,67087.44
2023-03-07T19:56:24.767Z,67079.03
2023-03-07T19:58:52.282Z,67073.63
2023-03-07T20:01:22.299Z,67077.34
2023-03-07T20:03:53.408Z,67084.97
2023-03-07T20:06:37.906Z,67081.63
2023-03-07T20:09:07.870Z,67083.72
2023-03-07T20:11:38.817Z,67080.50
2023-03-07T20:14:13.461Z,67070.59
2023-03-07T20:16:52.472Z,67065.19
2023-03-07T20:19:23.910Z,67070.94
2023-03-07T20:21:51.790Z,67074.88
2023-03-07T20:24:22.582Z,67068.72
2023-03-07T20:26:49.883Z,67069.13
2023-03-07T20:29:17.218Z,67072.28
2023-03-07T20:31:46.790Z,67073.97
2023-03-07T20:34:15.467Z,67076.56
2023-03-07T20:36:45.250Z,67071.16
2023-03-07T20:39:21.716Z,67067.09
2023-03-07T20:41:57.865Z,67072.28
2023-03-07T20:44:30.019Z,67073.97
2023-03-07T20:46:59.286Z,67064.41
2023-03-07T20:49:32.402Z,67074.31
2023-03-07T20:52:06.889Z,67069.25
2023-03-07T20:54:37.454Z,67064.41
2023-03-07T20:57:04.634Z,67069.13
2023-03-07T20:59:32.814Z,67070.41
2023-03-07T21:02:03.181Z,67067.38
2023-03-07T21:04:30.677Z,67064.97
2023-03-07T21:06:57.808Z,67062.19
2023-03-07T21:09:25.088Z,67066.88
2023-03-07T21:11:52.467Z,67064.06
2023-03-07T21:14:20.313Z,67065.34
2023-03-07T21:16:47.578Z,67062.19
2023-03-07T21:19:14.845Z,67059.59
2023-03-07T21:21:42.926Z,67062.75
2023-03-07T21:24:12.531Z,67063.88
2023-03-07T21:26:39.991Z,67057.69
2023-03-07T21:29:09.116Z,67058.25
2023-03-07T21:31:37.268Z,67057.13
2023-03-07T21:34:07.321Z,67063.50
2023-03-07T21:36:35.389Z,67061.81
2023-03-07T21:39:05.314Z,67064.41
2023-03-07T21:41:32.422Z,67061.81
2023-03-07T21:44:00.520Z,67062.75
2023-03-07T21:46:30.417Z,67066.78
2023-03-07T21:49:01.611Z,67063.28
2023-03-07T21:51:28.941Z,67069.25
2023-03-07T21:53:56.154Z,67065.56
2023-03-07T21:56:23.939Z,67069.25
2023-03-07T21:58:52.132Z,67067.03
2023-03-07T22:01:24.932Z,67062.19
2023-03-07T22:03:54.725Z,67061.06
2023-03-07T22:06:22.527Z,67060.50
2023-03-07T22:08:49.724Z,67064.19
2023-03-07T22:11:16.869Z,67060.50
2023-03-07T22:13:44.018Z,67065.88
2023-03-07T22:16:15.132Z,67059.94
2023-03-07T22:18:46.973Z,67059.59
2023-03-07T22:21:15.122Z,67065.34
2023-03-07T22:23:42.814Z,67068.56
2023-03-07T22:26:11.712Z,67067.44
2023-03-07T22:28:41.412Z,67069.69
2023-03-07T22:31:13.254Z,67066.88
2023-03-07T22:33:41.399Z,67067.22
2023-03-07T22:36:12.854Z,67069.81
2023-03-07T22:38:41.765Z,67082.38
2023-03-07T22:41:14.983Z,67087.09
2023-03-07T22:43:42.879Z,67075.66
2023-03-07T22:46:10.586Z,67083.50
2023-03-07T22:48:38.333Z,67088.34
2023-03-07T22:51:10.222Z,67083.50
2023-03-07T22:53:37.256Z,67079.03
2023-03-07T22:56:13.221Z,67073.06
2023-03-07T22:58:40.290Z,67074.53
2023-03-07T23:01:20.302Z,67075.84
2023-03-07T23:03:49.308Z,67070.41
2023-03-07T23:06:17.254Z,67064.97
2023-03-07T23:08:48.481Z,67044.97
2023-03-07T23:11:16.727Z,67035.25
2023-03-07T23:13:43.941Z,67024.22
2023-03-07T23:16:17.721Z,67021.97
2023-03-07T23:18:46.205Z,67021.78
2023-03-07T23:21:16.077Z,67021.78
2023-03-07T23:23:43.679Z,67019.53
2023-03-07T23:26:17.233Z,67021.41
2023-03-07T23:28:44.440Z,67021.78
2023-03-07T23:31:22.811Z,67029.41
2023-03-07T23:33:50.802Z,67024.38
2023-03-07T23:36:17.826Z,67022.34
2023-03-07T23:38:46.698Z,67019.72
2023-03-07T23:41:14.553Z,67020.44
2023-03-07T23:43:41.559Z,67013.00
2023-03-07T23:46:08.712Z,67008.50
2023-03-07T23:48:35.828Z,67009.06
2023-03-07T23:51:02.974Z,67004.59
2023-03-07T23:53:30.117Z,67011.09
2023-03-07T23:55:57.266Z,66998.63
2023-03-07T23:58:24.424Z,67003.25
